Time;durP1;ratioP1;P1;durP2;ratioP2;P2;SDS_P1;SDS_P2;PMS_P1;PMS_P2;Temp;Humidity;BMP_temperature;BMP_pressure;BME280_temperature;BME280_humidity;BME280_pressure;Samples;Min_cycle;Max_cycle;Signal;HPM_P1;HPM_P2
2022/03/18 00:01:54;;;;;;;37.90;21.50;;;;;;;3.51;44.64;102504.14;109861;1257;22462;-75
2022/03/18 00:04:26;;;;;;;45.70;24.80;;;;;;;3.51;44.56;102506.04;109853;1259;21976;-74
2022/03/18 00:06:56;;;;;;;36.10;22.20;;;;;;;3.52;44.48;102503.39;110222;1258;22523;-74
2022/03/18 00:09:25;;;;;;;36.80;23.30;;;;;;;3.51;44.32;102499.41;109459;1265;22632;-74
2022/03/18 00:11:55;;;;;;;34.00;21.90;;;;;;;3.50;44.33;102495.98;109498;1262;21979;-74
2022/03/18 00:14:28;;;;;;;33.20;21.10;;;;;;;3.49;44.28;102497.63;109468;1263;23712;-73
2022/03/18 00:16:58;;;;;;;29.30;20.20;;;;;;;3.48;44.17;102500.09;109401;1265;22430;-75
2022/03/18 00:19:30;;;;;;;30.20;19.80;;;;;;;3.49;44.11;102501.98;109653;1261;22010;-75
2022/03/18 00:22:01;;;;;;;25.60;18.40;;;;;;;3.48;43.94;102504.98;108919;1267;21995;-75
2022/03/18 00:24:33;;;;;;;27.70;17.40;;;;;;;3.48;43.85;102506.36;108838;1270;22406;-75
2022/03/18 00:27:05;;;;;;;26.60;17.20;;;;;;;3.49;43.69;102509.98;108955;1267;22746;-75
2022/03/18 00:29:35;;;;;;;25.30;15.20;;;;;;;3.48;43.61;102511.07;108832;1267;21988;-75
2022/03/18 00:32:08;;;;;;;27.60;18.00;;;;;;;3.47;43.56;102511.47;108822;1270;23757;-75
2022/03/18 00:34:38;;;;;;;29.90;18.40;;;;;;;3.47;43.48;102510.73;109044;1264;21989;-74
2022/03/18 00:37:07;;;;;;;25.30;15.80;;;;;;;3.48;43.46;102514.58;109556;1264;21982;-74
2022/03/18 00:39:37;;;;;;;24.80;15.40;;;;;;;3.47;43.32;102518.61;109692;1257;21975;-74
2022/03/18 00:42:12;;;;;;;21.70;15.30;;;;;;;3.45;43.27;102519.93;110283;1257;21985;-74
2022/03/18 00:44:41;;;;;;;28.90;16.40;;;;;;;3.43;43.23;102522.11;110290;1259;22324;-74
2022/03/18 00:52:53;;;;;;;25.20;16.70;;;;;;;3.37;42.99;102526.90;109848;1263;21981;-75
2022/03/18 00:55:23;;;;;;;22.60;16.20;;;;;;;3.37;42.96;102530.23;109831;1262;23801;-75
2022/03/18 00:57:56;;;;;;;22.80;16.10;;;;;;;3.36;42.91;102530.46;109352;1264;22917;-76
2022/03/18 01:00:25;;;;;;;22.40;15.70;;;;;;;3.34;42.86;102528.08;109355;1264;23042;-75
2022/03/18 01:02:54;;;;;;;21.20;16.10;;;;;;;3.33;42.72;102533.33;109255;1264;22461;-75
2022/03/18 01:05:27;;;;;;;24.70;17.00;;;;;;;3.31;42.73;102535.34;109217;1265;21996;-76
2022/03/18 01:07:56;;;;;;;23.10;16.20;;;;;;;3.29;42.70;102535.94;108997;1264;22179;-75
2022/03/18 01:10:36;;;;;;;25.20;16.90;;;;;;;3.26;42.62;102530.13;109524;1264;21992;-75
2022/03/18 01:13:11;;;;;;;24.60;17.30;;;;;;;3.25;42.65;102531.61;109201;1264;21992;-75
2022/03/18 01:15:40;;;;;;;20.30;16.20;;;;;;;3.23;42.61;102534.14;109156;1264;21969;-74
2022/03/18 01:18:13;;;;;;;24.40;17.60;;;;;;;3.22;42.60;102539.75;109510;1261;22092;-74
2022/03/18 01:20:48;;;;;;;27.40;17.40;;;;;;;3.19;42.63;102546.30;110005;1258;23323;-74
2022/03/18 01:23:17;;;;;;;23.00;17.00;;;;;;;3.16;42.63;102540.02;109832;1258;21977;-75
2022/03/18 01:25:46;;;;;;;26.30;16.10;;;;;;;3.11;42.59;102539.16;110175;1259;21968;-75
2022/03/18 01:28:16;;;;;;;24.30;15.70;;;;;;;3.09;42.71;102539.97;110017;1258;21973;-75
2022/03/18 01:30:45;;;;;;;25.70;17.80;;;;;;;3.06;42.79;102536.94;109310;1263;21978;-76
2022/03/18 01:33:17;;;;;;;23.90;17.30;;;;;;;3.01;42.64;102538.20;109202;1263;23029;-74
2022/03/18 01:35:46;;;;;;;23.20;15.80;;;;;;;2.97;42.77;102535.58;109554;1264;21995;-74
2022/03/18 01:38:15;;;;;;;21.80;15.10;;;;;;;2.95;42.74;102540.73;109232;1265;21995;-75
2022/03/18 01:40:45;;;;;;;22.50;15.80;;;;;;;2.94;42.80;102542.36;109232;1263;23789;-75
2022/03/18 01:43:14;;;;;;;29.20;18.10;;;;;;;2.92;42.80;102542.06;109544;1263;23634;-75
2022/03/18 01:45:46;;;;;;;22.20;15.70;;;;;;;2.90;42.72;102540.27;109149;1267;23820;-75
2022/03/18 01:48:15;;;;;;;23.70;16.60;;;;;;;2.88;42.78;102547.45;109308;1258;22094;-75
2022/03/18 01:50:45;;;;;;;23.70;17.60;;;;;;;2.87;42.85;102548.02;109825;1258;22762;-75
2022/03/18 01:53:16;;;;;;;23.80;15.60;;;;;;;2.85;42.81;102548.95;109715;1258;22030;-76
2022/03/18 01:55:45;;;;;;;22.40;15.50;;;;;;;2.84;42.80;102551.09;109638;1261;23027;-75
2022/03/18 01:58:14;;;;;;;22.80;16.40;;;;;;;2.84;42.86;102552.66;109753;1258;23732;-75
2022/03/18 02:00:43;;;;;;;25.10;16.20;;;;;;;2.85;42.94;102561.01;109206;1267;23734;-74
2022/03/18 02:03:13;;;;;;;28.20;18.50;;;;;;;2.84;42.92;102563.28;109215;1267;23015;-75
2022/03/18 02:05:43;;;;;;;32.00;20.60;;;;;;;2.83;42.83;102560.17;109218;1267;21974;-75
2022/03/18 02:08:17;;;;;;;23.50;16.30;;;;;;;2.82;42.88;102560.94;109187;1267;23686;-76
2022/03/18 02:10:46;;;;;;;26.70;17.30;;;;;;;2.79;42.79;102560.17;108990;1267;22982;-74
2022/03/18 02:13:16;;;;;;;26.20;17.40;;;;;;;2.78;42.85;102560.41;108942;1266;21982;-75
2022/03/18 02:15:45;;;;;;;24.60;17.00;;;;;;;2.74;42.78;102563.34;109201;1267;21988;-74
2022/03/18 02:18:15;;;;;;;21.70;15.60;;;;;;;2.72;42.79;102567.25;109313;1258;21968;-74
2022/03/18 02:20:45;;;;;;;24.90;17.00;;;;;;;2.70;42.77;102564.20;110164;1258;22032;-75
2022/03/18 02:23:17;;;;;;;24.70;17.10;;;;;;;2.68;42.76;102561.33;109938;1259;22133;-75
2022/03/18 02:25:48;;;;;;;25.70;15.80;;;;;;;2.66;42.82;102563.48;109380;1264;23162;-74
2022/03/18 02:28:19;;;;;;;28.40;16.20;;;;;;;2.67;42.92;102564.54;109335;1263;22194;-74
2022/03/18 02:30:48;;;;;;;22.90;16.40;;;;;;;2.66;42.82;102572.91;109574;1264;23075;-75
2022/03/18 02:33:18;;;;;;;21.20;14.60;;;;;;;2.65;42.92;102576.59;109579;1264;21972;-76
2022/03/18 02:35:55;;;;;;;23.50;15.40;;;;;;;2.64;42.99;102576.83;108926;1267;23033;-75
2022/03/18 02:38:24;;;;;;;24.40;15.80;;;;;;;2.62;43.02;102578.48;108512;1273;22000;-75
2022/03/18 02:40:54;;;;;;;23.40;15.90;;;;;;;2.59;43.06;102580.48;108359;1276;23641;-75
2022/03/18 02:43:26;;;;;;;20.80;16.20;;;;;;;2.57;43.17;102581.27;108350;1273;21985;-75
2022/03/18 02:45:58;;;;;;;22.70;16.00;;;;;;;2.54;43.14;102577.91;108674;1273;24395;-75
2022/03/18 02:48:27;;;;;;;21.50;15.90;;;;;;;2.50;43.24;102584.00;108709;1273;21977;-75
2022/03/18 02:50:59;;;;;;;25.90;17.60;;;;;;;2.47;43.34;102584.27;108515;1273;23717;-75
2022/03/18 02:53:30;;;;;;;30.90;21.60;;;;;;;2.45;43.45;102586.63;108545;1270;22038;-75
2022/03/18 02:56:04;;;;;;;24.30;16.00;;;;;;;2.41;43.53;102589.39;108717;1267;23577;-75
2022/03/18 02:58:35;;;;;;;30.50;18.40;;;;;;;2.39;43.58;102595.54;109051;1264;21976;-74
2022/03/18 03:01:07;;;;;;;25.90;17.50;;;;;;;2.38;43.73;102600.45;109378;1261;21972;-75
2022/03/18 03:03:37;;;;;;;27.20;17.50;;;;;;;2.37;43.82;102605.52;109750;1262;22203;-75
2022/03/18 03:08:57;;;;;;;28.30;17.40;;;;;;;2.38;43.88;102609.66;109184;1267;22102;-75
2022/03/18 03:11:27;;;;;;;162.50;88.10;;;;;;;2.35;43.90;102610.13;108996;1267;21982;-76
2022/03/18 03:13:56;;;;;;;91.80;52.90;;;;;;;2.31;43.86;102614.10;109381;1264;23041;-74
2022/03/18 03:16:26;;;;;;;39.70;23.90;;;;;;;2.28;44.00;102615.10;109369;1264;23618;-75
2022/03/18 03:18:56;;;;;;;26.00;17.40;;;;;;;2.24;44.09;102615.95;109596;1263;22260;-75
2022/03/18 03:21:27;;;;;;;24.30;16.40;;;;;;;2.23;44.39;102620.48;108994;1270;22111;-75
2022/03/18 03:23:57;;;;;;;27.90;19.70;;;;;;;2.22;44.28;102623.48;108892;1270;22753;-75
2022/03/18 03:26:26;;;;;;;26.20;17.20;;;;;;;2.20;44.28;102624.81;108942;1267;23598;-75
2022/03/18 03:28:56;;;;;;;25.90;17.10;;;;;;;2.17;44.43;102627.34;109033;1264;21981;-76
2022/03/18 03:31:25;;;;;;;34.50;21.60;;;;;;;2.16;44.42;102632.61;108904;1270;23072;-78
2022/03/18 03:33:54;;;;;;;23.20;15.60;;;;;;;2.11;44.47;102634.33;108909;1270;22289;-78
2022/03/18 03:36:24;;;;;;;22.00;15.80;;;;;;;2.09;44.58;102637.38;108769;1270;23065;-76
2022/03/18 03:38:53;;;;;;;22.20;15.50;;;;;;;2.08;44.65;102640.70;108868;1264;22014;-76
2022/03/18 03:41:24;;;;;;;25.20;16.80;;;;;;;2.08;44.65;102641.23;109295;1264;23687;-76
2022/03/18 03:43:56;;;;;;;24.20;16.50;;;;;;;2.06;44.62;102638.16;109292;1265;23029;-74
2022/03/18 03:46:26;;;;;;;22.60;15.80;;;;;;;2.03;44.70;102641.42;109294;1264;22472;-75
2022/03/18 03:48:57;;;;;;;23.60;16.90;;;;;;;1.98;44.65;102642.98;109360;1265;23868;-75
2022/03/18 03:51:27;;;;;;;26.60;18.20;;;;;;;1.93;44.77;102646.32;108983;1264;22026;-75
2022/03/18 03:53:56;;;;;;;24.40;18.30;;;;;;;1.87;44.82;102652.42;109235;1264;23707;-74
2022/03/18 03:56:28;;;;;;;26.00;18.60;;;;;;;1.82;44.80;102655.20;109567;1259;24558;-77
2022/03/18 03:58:57;;;;;;;28.50;20.50;;;;;;;1.76;44.96;102653.48;109890;1259;23037;-75
2022/03/18 04:01:26;;;;;;;33.60;21.30;;;;;;;1.71;45.15;102657.67;110087;1259;23586;-74
2022/03/18 04:03:58;;;;;;;27.80;21.00;;;;;;;1.68;45.21;102659.19;110172;1259;21975;-75
2022/03/18 04:06:27;;;;;;;28.60;20.00;;;;;;;1.64;45.35;102658.63;109868;1259;23136;-76
2022/03/18 04:08:56;;;;;;;27.60;19.20;;;;;;;1.62;45.43;102658.16;110030;1258;22689;-75
2022/03/18 04:11:26;;;;;;;26.60;17.30;;;;;;;1.58;45.53;102660.92;109890;1257;21977;-75
2022/03/18 04:13:56;;;;;;;26.70;18.60;;;;;;;1.53;45.59;102663.86;110287;1257;22117;-74
2022/03/18 04:16:28;;;;;;;27.00;18.50;;;;;;;1.47;45.75;102665.46;109672;1257;23061;-74
2022/03/18 04:18:57;;;;;;;31.10;19.50;;;;;;;1.40;45.80;102667.42;109551;1264;22032;-75
2022/03/18 04:21:30;;;;;;;25.80;19.20;;;;;;;1.35;45.98;102667.77;109682;1264;24382;-74
2022/03/18 04:23:59;;;;;;;;;;;;;;;1.31;46.15;102673.63;109584;1264;21993;-74
2022/03/18 04:26:28;;;;;;;35.70;24.70;;;;;;;1.21;46.24;102673.80;109575;1264;22428;-75
2022/03/18 04:28:59;;;;;;;31.90;22.70;;;;;;;1.17;46.37;102676.54;109586;1264;22006;-75
2022/03/18 04:31:28;;;;;;;32.50;24.40;;;;;;;1.15;46.48;102680.23;109398;1265;23038;-76
2022/03/18 04:34:01;;;;;;;37.10;27.30;;;;;;;1.14;46.61;102683.77;109375;1264;22369;-76
2022/03/18 04:36:30;;;;;;;36.80;27.20;;;;;;;1.12;46.84;102679.48;109803;1259;21969;-75
2022/03/18 04:39:01;;;;;;;189.60;90.90;;;;;;;1.11;46.93;102681.77;110344;1258;21988;-76
2022/03/18 04:41:30;;;;;;;66.30;39.10;;;;;;;1.07;47.08;102683.96;109897;1259;22035;-76
2022/03/18 04:44:01;;;;;;;52.20;32.90;;;;;;;1.06;47.17;102689.40;110226;1259;21969;-75
2022/03/18 04:46:31;;;;;;;45.40;29.80;;;;;;;1.06;47.32;102696.33;110037;1260;21962;-75
2022/03/18 04:49:03;;;;;;;;;;;;;;;1.07;47.40;102694.74;109890;1259;22063;-76
2022/03/18 04:51:32;;;;;;;42.80;28.90;;;;;;;1.01;47.58;102696.14;109209;1267;22027;-75
2022/03/18 04:54:01;;;;;;;48.90;32.30;;;;;;;0.99;47.75;102698.11;109342;1264;23076;-76
2022/03/18 04:59:19;;;;;;;43.80;30.30;;;;;;;1.02;47.84;102710.86;109240;1264;21953;-75
2022/03/18 05:01:52;;;;;;;41.50;30.20;;;;;;;1.03;47.90;102715.15;108986;1267;22088;-76
2022/03/18 05:04:22;;;;;;;46.30;34.10;;;;;;;1.02;47.85;102717.46;108968;1267;23636;-76
2022/03/18 05:06:52;;;;;;;56.30;39.10;;;;;;;0.98;47.90;102719.33;108917;1267;21973;-75
2022/03/18 05:09:23;;;;;;;54.80;39.20;;;;;;;0.95;48.03;102723.55;108965;1264;21982;-75
2022/03/18 05:11:52;;;;;;;75.00;44.40;;;;;;;0.92;48.10;102722.42;109370;1264;23680;-76
2022/03/18 05:14:22;;;;;;;57.80;36.10;;;;;;;0.90;48.11;102725.11;108674;1271;22076;-75
2022/03/18 05:16:52;;;;;;;45.80;30.00;;;;;;;0.87;48.21;102730.06;108715;1270;23055;-76
2022/03/18 05:19:21;;;;;;;39.90;30.20;;;;;;;0.84;48.24;102730.66;108879;1269;23693;-77
2022/03/18 05:21:53;;;;;;;43.10;33.70;;;;;;;0.81;48.33;102726.77;108852;1270;21982;-77
2022/03/18 05:24:27;;;;;;;45.60;31.60;;;;;;;0.79;48.44;102729.09;108934;1270;22386;-76
2022/03/18 05:26:58;;;;;;;39.50;30.20;;;;;;;0.75;48.38;102723.13;108931;1266;22707;-76
2022/03/18 05:29:31;;;;;;;40.40;30.30;;;;;;;0.73;48.46;102727.20;108913;1267;22769;-75
2022/03/18 05:32:01;;;;;;;47.20;34.40;;;;;;;0.72;48.50;102729.64;109168;1265;23659;-76
2022/03/18 05:34:32;;;;;;;41.00;29.20;;;;;;;0.73;48.57;102730.52;109585;1264;23585;-75
2022/03/18 05:37:01;;;;;;;47.10;34.40;;;;;;;0.74;48.69;102735.85;109341;1264;22996;-76
2022/03/18 05:39:30;;;;;;;38.80;29.10;;;;;;;0.76;48.65;102741.50;109482;1264;22439;-76
2022/03/18 05:42:00;;;;;;;41.50;27.90;;;;;;;0.78;48.61;102746.81;109601;1264;21993;-75
2022/03/18 05:44:30;;;;;;;44.90;31.80;;;;;;;0.78;48.62;102746.80;109488;1264;23763;-75
2022/03/18 05:46:59;;;;;;;44.70;31.20;;;;;;;0.81;48.60;102745.34;109299;1259;22440;-75
2022/03/18 05:49:32;;;;;;;32.60;27.00;;;;;;;0.82;48.57;102748.26;109983;1258;23731;-75
2022/03/18 05:52:01;;;;;;;40.80;27.70;;;;;;;0.81;48.57;102750.72;109996;1258;21980;-75
2022/03/18 05:54:31;;;;;;;35.40;26.50;;;;;;;0.83;48.57;102755.52;110140;1258;23795;-76
2022/03/18 05:57:00;;;;;;;53.90;31.50;;;;;;;0.86;48.65;102754.21;109993;1259;21986;-76
2022/03/18 05:59:33;;;;;;;38.80;26.30;;;;;;;0.89;48.60;102753.59;109854;1258;22750;-75
2022/03/18 06:02:03;;;;;;;42.40;28.70;;;;;;;0.91;48.51;102756.83;110031;1259;22745;-76
2022/03/18 06:04:34;;;;;;;31.90;26.40;;;;;;;0.92;48.53;102755.75;109989;1259;23072;-75
2022/03/18 06:07:05;;;;;;;38.80;24.50;;;;;;;0.94;48.49;102761.25;109840;1259;23601;-75
2022/03/18 06:12:27;;;;;;;35.80;23.30;;;;;;;0.94;48.40;102766.10;110019;1260;21973;-75
2022/03/18 06:14:56;;;;;;;28.10;20.60;;;;;;;0.98;48.40;102764.41;110124;1259;23568;-76
2022/03/18 06:17:25;;;;;;;30.40;22.80;;;;;;;1.01;48.37;102768.16;109949;1260;21987;-74
2022/03/18 06:19:54;;;;;;;29.40;23.70;;;;;;;1.03;48.34;102774.16;110036;1260;21986;-74
2022/03/18 06:22:24;;;;;;;35.00;23.40;;;;;;;1.08;48.36;102777.47;110042;1258;23624;-74
2022/03/18 06:24:56;;;;;;;29.70;22.80;;;;;;;1.12;48.25;102779.45;110282;1258;23678;-75
2022/03/18 06:27:25;;;;;;;34.80;24.00;;;;;;;1.19;48.34;102781.84;110066;1258;21968;-75
2022/03/18 06:29:54;;;;;;;40.00;24.00;;;;;;;1.25;48.18;102785.80;110000;1258;22983;-76
2022/03/18 06:32:24;;;;;;;31.60;21.20;;;;;;;1.30;48.11;102788.78;109836;1258;23846;-74
2022/03/18 06:34:54;;;;;;;28.10;21.60;;;;;;;1.34;47.96;102794.23;110008;1258;21977;-74
2022/03/18 06:37:26;;;;;;;31.40;22.60;;;;;;;1.36;47.83;102797.97;110343;1258;23007;-74
2022/03/18 06:39:55;;;;;;;28.50;20.90;;;;;;;1.40;47.84;102804.08;110183;1259;22441;-75
2022/03/18 06:42:25;;;;;;;29.00;21.80;;;;;;;1.45;47.64;102806.90;109983;1258;21969;-76
2022/03/18 06:44:59;;;;;;;30.20;22.50;;;;;;;1.47;47.49;102810.83;109998;1258;21981;-76
2022/03/18 06:47:28;;;;;;;32.30;24.90;;;;;;;1.51;47.49;102811.39;110192;1260;22012;-75
2022/03/18 06:49:57;;;;;;;27.00;21.60;;;;;;;1.54;47.32;102818.76;110013;1258;21961;-75
2022/03/18 06:52:27;;;;;;;29.60;19.10;;;;;;;1.54;47.09;102819.10;110025;1258;21983;-75
2022/03/18 06:54:59;;;;;;;31.80;21.20;;;;;;;1.56;47.03;102817.83;109861;1257;22289;-74
2022/03/18 06:57:28;;;;;;;35.30;21.10;;;;;;;1.61;46.91;102819.91;110020;1258;22075;-75
2022/03/18 06:59:58;;;;;;;29.30;20.90;;;;;;;1.63;46.78;102817.95;110202;1259;22036;-75
2022/03/18 07:02:27;;;;;;;30.90;20.50;;;;;;;1.70;46.82;102818.95;110329;1259;21960;-75
2022/03/18 07:04:57;;;;;;;26.90;19.60;;;;;;;1.79;46.86;102826.63;109926;1259;23763;-75
2022/03/18 07:07:33;;;;;;;28.00;21.90;;;;;;;1.90;46.71;102828.36;109741;1257;22974;-75
2022/03/18 07:10:06;;;;;;;33.60;20.40;;;;;;;1.99;46.57;102832.72;109381;1264;22420;-76
2022/03/18 07:12:36;;;;;;;24.80;19.00;;;;;;;2.05;46.08;102835.13;109305;1265;22877;-76
2022/03/18 07:15:07;;;;;;;30.00;20.40;;;;;;;2.12;46.14;102840.11;109008;1268;22783;-76
2022/03/18 07:17:55;;;;;;;28.10;19.60;;;;;;;2.24;46.14;102843.36;108917;1267;21986;-76
2022/03/18 07:20:29;;;;;;;23.70;19.10;;;;;;;2.40;45.98;102844.23;108854;1267;21988;-75
2022/03/18 07:23:09;;;;;;;29.50;20.30;;;;;;;2.50;45.61;102835.14;108966;1268;23039;-75
2022/03/18 07:25:47;;;;;;;25.10;20.20;;;;;;;2.62;45.43;102840.29;109130;1267;22448;-75
2022/03/18 07:28:21;;;;;;;27.40;20.20;;;;;;;2.78;45.66;102839.88;108856;1267;22212;-75
2022/03/18 07:30:50;;;;;;;28.90;21.70;;;;;;;2.98;45.49;102840.00;108930;1269;21986;-75
2022/03/18 07:33:22;;;;;;;29.90;19.40;;;;;;;3.17;44.82;102843.27;109197;1264;23700;-75
2022/03/18 07:35:53;;;;;;;23.60;17.40;;;;;;;3.24;44.20;102841.42;109649;1263;22012;-79
2022/03/18 07:38:26;;;;;;;28.60;16.80;;;;;;;3.32;43.93;102851.44;109494;1264;22922;-77
2022/03/18 07:41:19;;;;;;;22.40;16.00;;;;;;;3.40;43.67;102855.30;109399;1264;23679;-77
2022/03/18 07:43:51;;;;;;;26.60;16.30;;;;;;;3.47;43.20;102865.30;109447;1264;24373;-80
2022/03/18 07:46:24;;;;;;;26.00;17.30;;;;;;;3.43;42.66;102869.61;109811;1259;21969;-77
2022/03/18 07:49:11;;;;;;;24.40;17.00;;;;;;;3.40;42.58;102869.73;110217;1259;22417;-75
2022/03/18 07:51:48;;;;;;;22.00;16.70;;;;;;;3.41;42.58;102871.12;109692;1264;22044;-76
2022/03/18 07:54:20;;;;;;;23.70;17.20;;;;;;;3.50;42.77;102873.73;109441;1265;23133;-76
2022/03/18 07:56:51;;;;;;;27.10;17.10;;;;;;;3.63;42.68;102875.61;109668;1264;21994;-76
2022/03/18 07:59:20;;;;;;;24.50;16.30;;;;;;;3.72;42.16;102883.46;109331;1264;21981;-76
2022/03/18 08:01:50;;;;;;;28.40;17.80;;;;;;;3.74;41.81;102887.02;109375;1265;22211;-76
2022/03/18 08:04:23;;;;;;;30.60;18.80;;;;;;;3.73;41.56;102893.70;109610;1264;21981;-76
2022/03/18 08:06:57;;;;;;;27.70;18.30;;;;;;;3.80;41.88;102892.20;109457;1264;21961;-76
2022/03/18 08:09:27;;;;;;;27.90;17.90;;;;;;;3.95;41.83;102897.52;109856;1257;21971;-77
2022/03/18 08:11:59;;;;;;;27.00;19.40;;;;;;;4.14;41.82;102897.99;109718;1263;24518;-77
2022/03/18 08:14:28;;;;;;;25.30;19.30;;;;;;;4.31;41.53;102898.47;109218;1267;21975;-76
2022/03/18 08:17:01;;;;;;;30.70;17.80;;;;;;;4.53;41.50;102896.32;109190;1267;21979;-76
2022/03/18 08:19:33;;;;;;;29.10;17.80;;;;;;;4.78;41.18;102895.07;108867;1267;497849;-76
2022/03/18 08:22:07;;;;;;;20.60;16.40;;;;;;;4.96;40.69;102899.32;109195;1266;23097;-76
2022/03/18 08:24:36;;;;;;;21.80;16.40;;;;;;;5.13;40.07;102907.61;109287;1267;21989;-75
2022/03/18 08:27:06;;;;;;;23.50;17.00;;;;;;;5.26;39.76;102907.70;109088;1268;22704;-75
2022/03/18 08:29:38;;;;;;;26.30;14.60;;;;;;;5.49;39.75;102906.49;108858;1267;21971;-76
2022/03/18 08:32:13;;;;;;;17.00;13.90;;;;;;;5.72;39.29;102913.09;109019;1266;21976;-76
2022/03/18 08:34:43;;;;;;;17.60;14.20;;;;;;;5.93;39.03;102917.49;109611;1264;22049;-75
2022/03/18 08:37:16;;;;;;;35.60;14.30;;;;;;;6.11;38.12;102920.48;109362;1265;22907;-77
2022/03/18 08:40:12;;;;;;;22.00;14.60;;;;;;;6.20;37.49;102920.55;109594;1264;23824;-76
2022/03/18 08:42:46;;;;;;;18.20;12.30;;;;;;;6.35;37.26;102918.59;109419;1264;23670;-77
2022/03/18 08:45:19;;;;;;;17.80;11.90;;;;;;;6.45;36.96;102923.34;109658;1264;21988;-77
2022/03/18 08:47:49;;;;;;;18.90;14.10;;;;;;;6.57;36.89;102925.18;109955;1257;21993;-76
2022/03/18 08:50:20;;;;;;;26.80;16.10;;;;;;;6.85;36.56;102930.88;109835;1260;22075;-76
2022/03/18 08:52:55;;;;;;;17.10;12.10;;;;;;;7.05;35.88;102928.29;109848;1257;22093;-77
2022/03/18 08:55:26;;;;;;;23.40;12.30;;;;;;;7.14;35.12;102932.71;110469;1258;23004;-76
2022/03/18 08:58:00;;;;;;;16.10;12.70;;;;;;;7.09;34.95;102935.25;110396;1257;22040;-76
2022/03/18 09:00:35;;;;;;;20.00;13.20;;;;;;;7.11;34.78;102935.80;110080;1259;22195;-76
2022/03/18 09:03:09;;;;;;;19.30;13.40;;;;;;;7.21;34.75;102933.39;110188;1257;22303;-76
2022/03/18 09:05:39;;;;;;;19.30;13.60;;;;;;;7.41;34.66;102938.41;110249;1258;22414;-75
2022/03/18 09:08:23;;;;;;;20.70;13.30;;;;;;;7.51;34.08;102941.38;110029;1258;23668;-76
2022/03/18 09:10:52;;;;;;;14.40;11.10;;;;;;;7.55;33.97;102942.04;110004;1259;21967;-76
2022/03/18 09:13:21;;;;;;;17.00;11.40;;;;;;;7.72;34.00;102943.39;110247;1258;22471;-76
2022/03/18 09:15:51;;;;;;;17.90;12.10;;;;;;;7.85;33.34;102948.23;110080;1259;23820;-76
2022/03/18 09:18:25;;;;;;;21.40;14.70;;;;;;;7.76;32.53;102947.54;109949;1260;25018;-75
2022/03/18 09:20:54;;;;;;;16.50;12.10;;;;;;;7.77;32.70;102947.28;110064;1260;22437;-76
2022/03/18 09:23:26;;;;;;;19.80;13.90;;;;;;;7.77;32.49;102944.84;110213;1257;21978;-76
2022/03/18 09:25:56;;;;;;;;;;;;;;;7.78;32.61;102944.41;110361;1259;21959;-76
2022/03/18 09:28:26;;;;;;;18.10;12.50;;;;;;;7.73;32.55;102946.12;110380;1259;23670;-76
2022/03/18 09:30:55;;;;;;;22.30;12.30;;;;;;;7.64;32.29;102946.80;110207;1259;21966;-75
2022/03/18 09:33:25;;;;;;;22.00;12.30;;;;;;;7.53;32.32;102945.85;109912;1260;21969;-75
2022/03/18 09:35:55;;;;;;;16.50;12.00;;;;;;;7.51;32.53;102948.23;110214;1257;21967;-75
2022/03/18 09:38:27;;;;;;;16.30;12.20;;;;;;;7.54;32.58;102950.16;110041;1259;23734;-75
2022/03/18 09:40:57;;;;;;;20.20;13.40;;;;;;;7.60;32.76;102952.66;110176;1257;21966;-76
2022/03/18 09:43:41;;;;;;;16.00;11.70;;;;;;;7.71;32.69;102953.10;109632;1263;23704;-77
2022/03/18 09:46:14;;;;;;;13.80;11.40;;;;;;;7.80;32.40;102952.77;109446;1265;23130;-76
2022/03/18 09:49:11;;;;;;;16.90;10.90;;;;;;;7.95;32.56;102956.84;109407;1265;22468;-76
2022/03/18 09:51:45;;;;;;;27.90;18.60;;;;;;;8.20;32.61;102957.29;109336;1264;23832;-76
2022/03/18 09:54:32;;;;;;;28.80;14.70;;;;;;;8.45;32.04;102962.38;109411;1265;21974;-76
2022/03/18 09:57:02;;;;;;;;;;;;;;;8.67;31.57;102967.59;109765;1264;22205;-76
2022/03/18 09:59:32;;;;;;;14.40;9.70;;;;;;;8.74;30.89;102968.23;109664;1263;23573;-75
2022/03/18 10:02:28;;;;;;;14.60;9.80;;;;;;;8.81;30.68;102967.95;110019;1258;21966;-76
2022/03/18 10:05:08;;;;;;;13.00;9.60;;;;;;;9.08;30.57;102971.61;109657;1263;23751;-76
2022/03/18 10:07:38;;;;;;;14.50;9.20;;;;;;;9.45;30.46;102972.81;109678;1263;23410;-77
2022/03/18 10:10:14;;;;;;;12.00;10.40;;;;;;;9.73;29.40;102977.55;109303;1264;21985;-76
2022/03/18 10:12:47;;;;;;;11.50;8.40;;;;;;;9.93;29.28;102973.66;109689;1262;21975;-76
2022/03/18 10:15:23;;;;;;;13.20;9.60;;;;;;;10.16;28.85;102977.05;109464;1262;22150;-75
2022/03/18 10:17:56;;;;;;;21.70;12.20;;;;;;;10.52;28.82;102979.61;109058;1269;23047;-76
2022/03/18 10:20:37;;;;;;;19.30;11.20;;;;;;;11.16;28.76;102982.27;109032;1267;22756;-76
2022/03/18 10:23:15;;;;;;;13.30;8.70;;;;;;;11.85;27.90;102978.99;109218;1264;21986;-75
2022/03/18 10:25:51;;;;;;;21.30;10.00;;;;;;;12.35;26.72;102990.50;109308;1267;21970;-76
2022/03/18 10:28:35;;;;;;;14.80;9.30;;;;;;;12.60;26.15;102989.85;109392;1266;22793;-76
2022/03/18 10:31:21;;;;;;;16.60;9.80;;;;;;;12.76;25.49;102992.52;109468;1266;22095;-77
2022/03/18 10:37:11;;;;;;;12.90;8.20;;;;;;;13.18;24.75;102989.63;109229;1264;21975;-75
2022/03/18 10:39:50;;;;;;;9.90;8.20;;;;;;;13.51;24.59;102988.59;109618;1264;21971;-76
2022/03/18 10:42:20;;;;;;;12.80;8.90;;;;;;;13.87;23.95;102991.41;109396;1267;22087;-76
2022/03/18 10:44:51;;;;;;;10.50;8.70;;;;;;;14.11;23.93;102990.46;109296;1264;22982;-76
2022/03/18 10:47:28;;;;;;;9.90;8.40;;;;;;;14.44;23.43;102996.73;109714;1264;22975;-76
2022/03/18 10:50:21;;;;;;;10.20;7.80;;;;;;;14.51;22.51;102996.36;109125;1267;21993;-75
2022/03/18 10:52:57;;;;;;;9.70;7.70;;;;;;;14.46;21.96;102990.04;108957;1269;22295;-76
2022/03/18 10:55:33;;;;;;;13.00;7.60;;;;;;;14.52;22.36;102987.27;108675;1273;21997;-76
2022/03/18 10:58:12;;;;;;;13.00;9.00;;;;;;;14.87;22.45;102988.73;108730;1273;22886;-76
2022/03/18 11:00:54;;;;;;;19.00;10.60;;;;;;;15.23;22.04;102992.49;108487;1273;21985;-75
2022/03/18 11:03:34;;;;;;;15.00;10.20;;;;;;;15.77;21.93;102986.30;108484;1275;22007;-76
2022/03/18 11:06:17;;;;;;;11.60;8.30;;;;;;;16.29;21.62;102992.94;108437;1276;21996;-76
2022/03/18 11:08:48;;;;;;;15.00;9.90;;;;;;;16.30;20.59;102992.21;108471;1273;22009;-75
2022/03/18 11:11:22;;;;;;;16.20;9.00;;;;;;;15.81;20.19;102990.92;108627;1273;23732;-76
2022/03/18 11:14:02;;;;;;;16.20;8.40;;;;;;;14.75;19.78;102989.91;108638;1267;21988;-76
2022/03/18 11:16:43;;;;;;;13.50;8.30;;;;;;;13.95;20.52;102985.59;109043;1267;21987;-75
2022/03/18 11:19:15;;;;;;;;;;;;;;;13.07;20.64;102984.63;109093;1267;25146;-75
2022/03/18 11:21:46;;;;;;;12.80;8.20;;;;;;;12.24;21.32;102985.06;108745;1273;22418;-75
2022/03/18 11:24:22;;;;;;;15.70;8.90;;;;;;;11.69;21.83;102981.73;108523;1273;21993;-76
2022/03/18 11:26:53;;;;;;;10.50;7.80;;;;;;;11.31;22.41;102986.92;108461;1276;22056;-76
2022/03/18 11:29:29;;;;;;;15.50;7.40;;;;;;;10.96;22.20;102978.20;108387;1276;22448;-76
2022/03/18 11:32:13;;;;;;;9.40;7.80;;;;;;;10.51;22.16;102974.77;108094;1282;22139;-76
2022/03/18 11:34:47;;;;;;;12.10;8.00;;;;;;;10.20;22.87;102977.70;108119;1282;22023;-76
2022/03/18 11:37:20;;;;;;;10.80;8.50;;;;;;;10.03;23.15;102973.89;108422;1279;23142;-76
2022/03/18 11:39:50;;;;;;;10.00;7.60;;;;;;;10.01;23.53;102970.83;108738;1270;23731;-76
2022/03/18 11:42:22;;;;;;;9.30;7.60;;;;;;;10.08;23.84;102971.96;108934;1268;23802;-76
2022/03/18 11:44:58;;;;;;;11.70;8.70;;;;;;;10.16;23.88;102975.49;109267;1266;21980;-76
2022/03/18 11:47:31;;;;;;;11.70;7.90;;;;;;;10.21;23.98;102977.11;109589;1265;23690;-76
2022/03/18 11:50:43;;;;;;;12.70;8.10;;;;;;;10.21;23.88;102985.20;109989;1257;22833;-76
2022/03/18 11:53:14;;;;;;;10.70;7.60;;;;;;;10.17;24.06;102987.02;109237;1267;21988;-75